createdAt,value
2017-09-23T00:00:46.090Z,77.00
2017-09-23T00:03:13.601Z,65.50
2017-09-23T00:05:41.110Z,62.70
2017-09-23T00:08:08.606Z,60.63
2017-09-23T00:10:36.889Z,86.57
2017-09-23T00:13:04.397Z,87.13
2017-09-23T00:15:32.001Z,76.27
2017-09-23T00:17:59.500Z,75.23
2017-09-23T00:20:27.777Z,65.63
2017-09-23T00:22:55.270Z,67.67
2017-09-23T00:25:22.783Z,84.00
2017-09-23T00:27:50.283Z,62.40
2017-09-23T00:30:18.564Z,100.53
2017-09-23T00:32:46.062Z,71.73
2017-09-23T00:35:13.575Z,71.13
2017-09-23T00:37:41.102Z,79.50
2017-09-23T00:40:08.669Z,92.17
2017-09-23T00:42:36.186Z,95.20
2017-09-23T00:45:03.693Z,77.70
2017-09-23T00:47:31.210Z,72.53
2017-09-23T00:49:58.826Z,81.47
2017-09-23T00:52:26.369Z,79.93
2017-09-23T00:54:53.885Z,104.97
2017-09-23T00:57:22.174Z,89.13
2017-09-23T00:59:49.689Z,102.93
2017-09-23T01:02:17.975Z,96.50
2017-09-23T01:04:45.493Z,95.80
2017-09-23T01:07:13.754Z,82.00
2017-09-23T01:09:42.150Z,107.53
2017-09-23T01:12:09.670Z,83.00
2017-09-23T01:14:37.933Z,89.73
2017-09-23T01:17:06.217Z,99.70
2017-09-23T01:19:33.710Z,99.03
2017-09-23T01:22:01.238Z,106.23
2017-09-23T01:24:30.245Z,115.13
2017-09-23T01:26:58.541Z,87.77
2017-09-23T01:29:26.098Z,92.80
2017-09-23T01:31:53.625Z,102.97
2017-09-23T01:34:21.116Z,89.47
2017-09-23T01:36:49.393Z,83.70
2017-09-23T01:39:16.974Z,102.27
2017-09-23T01:41:44.497Z,84.90
2017-09-23T01:44:12.757Z,99.83
2017-09-23T01:46:41.037Z,90.83
2017-09-23T01:49:08.540Z,90.37
2017-09-23T01:51:36.036Z,104.50
2017-09-23T01:54:03.549Z,95.27
2017-09-23T01:56:31.826Z,88.07
2017-09-23T01:58:59.335Z,81.70
2017-09-23T02:01:26.829Z,85.60
2017-09-23T02:03:54.343Z,86.87
2017-09-23T02:06:22.609Z,80.60
2017-09-23T02:08:50.116Z,79.10
2017-09-23T02:11:17.618Z,94.63
2017-09-23T02:13:45.138Z,76.40
2017-09-23T02:16:12.694Z,75.13
2017-09-23T02:18:40.200Z,80.47
2017-09-23T02:21:07.794Z,89.07
2017-09-23T02:23:36.145Z,72.50
2017-09-23T02:26:03.657Z,84.67
2017-09-23T02:28:31.922Z,95.07
2017-09-23T02:31:00.195Z,89.63
2017-09-23T02:33:27.690Z,97.50
2017-09-23T02:35:55.205Z,82.43
2017-09-23T02:38:22.702Z,122.43
2017-09-23T02:40:50.281Z,105.10
2017-09-23T02:43:17.833Z,126.87
2017-09-23T02:45:45.370Z,111.87
2017-09-23T02:48:12.869Z,113.77
2017-09-23T02:50:40.369Z,106.27
2017-09-23T02:53:07.902Z,110.27
2017-09-23T02:55:35.401Z,112.03
2017-09-23T02:58:02.990Z,120.90
2017-09-23T03:00:30.494Z,119.87
2017-09-23T03:02:58.781Z,149.60
2017-09-23T03:05:26.333Z,158.43
2017-09-23T03:07:53.881Z,129.87
2017-09-23T03:10:21.431Z,131.40
2017-09-23T03:12:48.934Z,124.53
2017-09-23T03:15:17.232Z,161.37
2017-09-23T03:17:44.878Z,165.80
2017-09-23T03:20:12.386Z,124.43
2017-09-23T03:22:40.648Z,138.40
2017-09-23T03:25:08.933Z,179.80
2017-09-23T03:27:36.448Z,138.10
2017-09-23T03:30:04.152Z,138.33
2017-09-23T03:32:31.673Z,196.30
2017-09-23T03:34:59.201Z,153.47
2017-09-23T03:37:27.460Z,260.40
2017-09-23T03:39:55.718Z,175.40
2017-09-23T03:42:24.002Z,182.23
2017-09-23T03:44:51.509Z,150.37
2017-09-23T03:47:19.081Z,107.43
2017-09-23T03:49:46.583Z,153.43
2017-09-23T03:52:14.862Z,111.07
2017-09-23T03:54:43.175Z,169.87
2017-09-23T03:57:10.716Z,124.23
2017-09-23T03:59:38.250Z,130.87
2017-09-23T04:02:05.785Z,127.13
2017-09-23T04:04:33.353Z,93.17
2017-09-23T04:07:00.853Z,130.53
2017-09-23T04:09:29.134Z,133.40
2017-09-23T04:11:56.681Z,125.90
2017-09-23T04:14:24.223Z,113.37
2017-09-23T04:16:51.725Z,117.77
2017-09-23T04:19:19.240Z,115.70
2017-09-23T04:21:46.733Z,132.17
2017-09-23T04:24:15.014Z,105.00
2017-09-23T04:26:42.514Z,136.43
2017-09-23T04:29:10.044Z,102.77
2017-09-23T04:31:37.547Z,145.50
2017-09-23T04:34:05.089Z,117.53
2017-09-23T04:36:32.614Z,117.90
2017-09-23T04:39:00.133Z,129.60
2017-09-23T04:41:27.644Z,104.23
2017-09-23T04:43:55.133Z,107.93
2017-09-23T04:46:23.407Z,88.13
2017-09-23T04:48:51.669Z,102.57
2017-09-23T04:51:19.180Z,105.30
2017-09-23T04:53:46.771Z,124.43
2017-09-23T04:56:14.318Z,100.40
2017-09-23T04:58:41.820Z,115.97
2017-09-23T05:01:09.406Z,111.13
2017-09-23T05:03:36.962Z,97.20
2017-09-23T05:06:04.449Z,110.60
2017-09-23T05:08:31.965Z,105.90
2017-09-23T05:10:59.469Z,110.47
2017-09-23T05:13:26.977Z,94.73
2017-09-23T05:15:54.568Z,113.07
2017-09-23T05:18:22.115Z,105.53
2017-09-23T05:20:49.653Z,101.23
2017-09-23T05:23:17.206Z,113.30
2017-09-23T05:25:44.709Z,102.87
2017-09-23T05:28:13.016Z,83.20
2017-09-23T05:30:40.545Z,137.67
2017-09-23T05:33:08.045Z,105.53
2017-09-23T05:35:35.569Z,93.93
2017-09-23T05:38:03.061Z,83.23
2017-09-23T05:40:30.641Z,103.87
2017-09-23T05:42:58.141Z,120.10
2017-09-23T05:45:26.425Z,100.27
2017-09-23T05:47:53.923Z,114.27
2017-09-23T05:50:22.966Z,119.70
2017-09-23T05:52:50.465Z,126.97
2017-09-23T05:55:18.737Z,93.73
2017-09-23T05:57:46.242Z,124.00
2017-09-23T06:00:13.754Z,85.90
2017-09-23T06:02:41.249Z,119.97
2017-09-23T06:05:09.541Z,127.20
2017-09-23T06:07:37.042Z,123.83
2017-09-23T06:10:04.628Z,118.70
2017-09-23T06:12:32.172Z,100.27
2017-09-23T06:14:59.670Z,106.00
2017-09-23T06:17:27.179Z,100.17
2017-09-23T06:19:54.672Z,121.50
2017-09-23T06:22:22.954Z,118.30
2017-09-23T06:24:50.449Z,120.77
2017-09-23T06:27:17.960Z,109.30
2017-09-23T06:29:45.455Z,141.57
2017-09-23T06:32:13.741Z,124.63
2017-09-23T06:34:41.248Z,120.40
2017-09-23T06:37:10.270Z,109.00
2017-09-23T06:39:37.841Z,106.07
2017-09-23T06:42:05.361Z,91.77
2017-09-23T06:44:32.852Z,99.37
2017-09-23T06:47:00.344Z,97.80
2017-09-23T06:49:27.860Z,85.83
2017-09-23T06:51:56.117Z,86.47
2017-09-23T06:54:23.689Z,86.53
2017-09-23T06:56:51.177Z,79.90
2017-09-23T06:59:18.680Z,78.40
2017-09-23T07:01:46.186Z,81.03
2017-09-23T07:04:13.689Z,78.30
2017-09-23T07:06:41.210Z,77.80
2017-09-23T07:09:08.717Z,80.30
2017-09-23T07:11:36.220Z,78.30
2017-09-23T07:14:03.729Z,76.13
2017-09-23T07:16:31.228Z,74.47
2017-09-23T07:18:58.760Z,67.30
2017-09-23T07:21:26.253Z,65.73
2017-09-23T07:23:54.509Z,70.07
2017-09-23T07:26:22.781Z,67.50
2017-09-23T07:28:50.276Z,59.80
2017-09-23T07:31:17.794Z,63.83
2017-09-23T07:33:45.297Z,64.77
2017-09-23T07:36:12.861Z,63.27
2017-09-23T07:38:40.353Z,68.03
2017-09-23T07:41:07.958Z,62.90
2017-09-23T07:43:35.453Z,61.50
2017-09-23T07:46:03.042Z,62.73
2017-09-23T07:48:30.536Z,62.67
2017-09-23T07:50:58.025Z,63.70
2017-09-23T07:53:25.565Z,60.30
2017-09-23T07:55:53.058Z,69.33
2017-09-23T07:58:20.625Z,59.50
2017-09-23T08:00:48.917Z,59.37
2017-09-23T08:03:16.434Z,67.10
2017-09-23T08:05:44.746Z,62.90
2017-09-23T08:08:12.261Z,64.33
2017-09-23T08:10:39.754Z,58.47
2017-09-23T08:13:07.257Z,63.83
2017-09-23T08:15:34.753Z,70.27
2017-09-23T08:18:02.265Z,71.73
2017-09-23T08:20:29.757Z,68.90
2017-09-23T08:22:58.042Z,54.90
2017-09-23T08:25:25.542Z,68.70
2017-09-23T08:27:53.071Z,71.20
2017-09-23T08:30:20.568Z,68.07
2017-09-23T08:32:48.069Z,71.00
2017-09-23T08:35:15.586Z,68.27
2017-09-23T08:37:43.855Z,72.70
2017-09-23T08:40:12.147Z,71.43
2017-09-23T08:42:39.641Z,67.53
2017-09-23T08:45:07.156Z,67.97
2017-09-23T08:47:34.656Z,68.97
2017-09-23T08:50:02.173Z,71.97
2017-09-23T08:52:29.673Z,77.30
2017-09-23T08:54:57.178Z,76.13
2017-09-23T08:57:24.677Z,70.13
2017-09-23T08:59:52.198Z,73.90
2017-09-23T09:02:19.721Z,74.63
2017-09-23T09:04:47.229Z,65.90
2017-09-23T09:07:14.726Z,69.50
2017-09-23T09:09:42.240Z,70.33
2017-09-23T09:12:09.737Z,73.97
2017-09-23T09:14:37.230Z,64.50
2017-09-23T09:17:04.745Z,78.90
2017-09-23T09:19:32.238Z,74.20
2017-09-23T09:21:59.751Z,81.67
2017-09-23T09:24:27.250Z,71.83
2017-09-23T09:26:54.761Z,73.23
2017-09-23T09:29:22.253Z,67.70
2017-09-23T09:31:49.769Z,66.10
2017-09-23T09:34:17.270Z,63.70
2017-09-23T09:36:44.825Z,79.57
2017-09-23T09:39:12.321Z,66.70
2017-09-23T09:41:39.824Z,64.30
2017-09-23T09:44:07.313Z,65.73
2017-09-23T09:46:34.825Z,72.93
2017-09-23T09:49:02.401Z,70.27
2017-09-23T09:51:29.904Z,66.60
2017-09-23T09:53:58.166Z,68.43
2017-09-23T09:56:26.450Z,66.60
2017-09-23T09:58:53.986Z,72.00
2017-09-23T10:01:21.544Z,67.20
2017-09-23T10:03:49.056Z,67.00
2017-09-23T10:06:17.332Z,76.73
2017-09-23T10:08:44.844Z,68.23
2017-09-23T10:11:12.342Z,66.87
2017-09-23T10:13:39.855Z,71.67
2017-09-23T10:16:07.349Z,70.30
2017-09-23T10:18:35.725Z,65.83
2017-09-23T10:21:03.217Z,60.27
2017-09-23T10:23:30.733Z,65.90
2017-09-23T10:25:58.230Z,60.60
2017-09-23T10:28:25.757Z,70.40
2017-09-23T10:30:54.045Z,62.60
2017-09-23T10:33:21.542Z,69.00
2017-09-23T10:35:49.155Z,66.13
2017-09-23T10:38:16.649Z,58.30
2017-09-23T10:40:44.942Z,59.90
2017-09-23T10:43:12.441Z,64.43
2017-09-23T10:45:39.950Z,65.50
2017-09-23T10:48:07.493Z,59.67
2017-09-23T10:50:35.001Z,58.17
2017-09-23T10:53:02.497Z,66.20
2017-09-23T10:55:30.013Z,63.17
2017-09-23T10:57:57.506Z,56.80
2017-09-23T11:00:25.033Z,50.37
2017-09-23T11:02:52.527Z,59.70
2017-09-23T11:05:20.016Z,58.37
2017-09-23T11:07:47.525Z,57.90
2017-09-23T11:10:15.057Z,60.37
2017-09-23T11:12:42.606Z,53.80
2017-09-23T11:15:10.097Z,52.97
2017-09-23T11:17:37.689Z,56.50
2017-09-23T11:20:05.186Z,49.37
2017-09-23T11:22:32.710Z,55.90
2017-09-23T11:25:00.198Z,51.60
2017-09-23T11:27:28.456Z,52.00
2017-09-23T11:29:56.730Z,52.00
2017-09-23T11:32:24.225Z,57.80
2017-09-23T11:34:51.848Z,53.23
2017-09-23T11:37:19.370Z,58.30
2017-09-23T11:39:46.918Z,57.03
2017-09-23T11:42:14.409Z,51.30
2017-09-23T11:44:42.024Z,51.00
2017-09-23T11:47:09.529Z,60.53
2017-09-23T11:49:37.908Z,54.17
2017-09-23T11:52:05.401Z,50.77
2017-09-23T11:54:33.022Z,49.70
2017-09-23T11:57:00.516Z,54.63
2017-09-23T11:59:28.806Z,54.43
2017-09-23T12:01:56.301Z,50.33
2017-09-23T12:04:23.889Z,55.83
2017-09-23T12:06:51.436Z,51.33
2017-09-23T12:09:18.978Z,48.23
2017-09-23T12:11:46.531Z,46.27
2017-09-23T12:14:14.272Z,47.17
2017-09-23T12:16:41.786Z,39.73
2017-09-23T12:19:10.049Z,45.80
2017-09-23T12:21:38.327Z,46.03
2017-09-23T12:24:05.885Z,50.67
2017-09-23T12:26:33.436Z,44.73
2017-09-23T12:29:01.040Z,40.83
2017-09-23T12:31:29.535Z,41.77
2017-09-23T12:33:57.049Z,38.23
2017-09-23T12:36:24.635Z,40.53
2017-09-23T12:38:52.191Z,34.73
2017-09-23T12:41:19.681Z,37.17
2017-09-23T12:43:47.962Z,37.70
2017-09-23T12:46:15.453Z,36.40
2017-09-23T12:48:43.057Z,40.27
2017-09-23T12:51:10.550Z,39.90
2017-09-23T12:53:38.062Z,37.73
2017-09-23T12:56:05.558Z,36.90
2017-09-23T12:58:33.838Z,36.20
2017-09-23T13:01:01.338Z,37.20
2017-09-23T13:03:28.944Z,39.23
2017-09-23T13:05:56.436Z,37.33
2017-09-23T13:08:23.950Z,37.87
2017-09-23T13:10:51.438Z,40.60
2017-09-23T13:13:19.734Z,35.93
2017-09-23T13:15:47.229Z,39.47
2017-09-23T13:18:14.729Z,39.40
2017-09-23T13:20:42.237Z,38.30
2017-09-23T13:23:10.537Z,37.70
2017-09-23T13:25:38.069Z,37.90
2017-09-23T13:28:05.610Z,45.27
2017-09-23T13:30:33.150Z,38.50
2017-09-23T13:33:00.651Z,39.33
2017-09-23T13:35:28.166Z,39.87
2017-09-23T13:37:55.658Z,36.23
2017-09-23T13:40:23.942Z,40.70
2017-09-23T13:42:51.441Z,37.80
2017-09-23T13:45:19.034Z,37.83
2017-09-23T13:47:46.819Z,36.73
2017-09-23T13:50:14.322Z,37.83
2017-09-23T13:52:41.832Z,39.17
2017-09-23T13:55:09.330Z,29.57
2017-09-23T13:57:36.857Z,34.47
2017-09-23T14:00:04.352Z,33.20
2017-09-23T14:02:31.941Z,35.10
2017-09-23T14:04:59.432Z,31.00
2017-09-23T14:07:27.086Z,36.17
2017-09-23T14:09:54.697Z,29.77
2017-09-23T14:12:23.053Z,32.07
2017-09-23T14:14:50.546Z,29.57
2017-09-23T14:17:18.125Z,33.03
2017-09-23T14:19:45.673Z,30.43
2017-09-23T14:22:13.173Z,28.57
2017-09-23T14:24:40.756Z,31.80
2017-09-23T14:27:08.246Z,34.30
2017-09-23T14:29:35.753Z,34.47
2017-09-23T14:32:03.286Z,36.23
2017-09-23T14:34:30.794Z,36.73
2017-09-23T14:36:58.285Z,33.47
2017-09-23T14:39:25.821Z,39.30
2017-09-23T14:41:53.314Z,39.03
2017-09-23T14:44:21.030Z,40.77
2017-09-23T14:46:48.657Z,34.87
2017-09-23T14:49:16.270Z,39.73
2017-09-23T14:51:43.840Z,34.03
2017-09-23T14:54:11.423Z,34.90
2017-09-23T14:56:39.838Z,42.33
2017-09-23T14:59:08.142Z,34.20
2017-09-23T15:01:35.749Z,38.67
2017-09-23T15:04:04.103Z,34.43
2017-09-23T15:06:32.447Z,33.90
2017-09-23T15:09:00.275Z,39.03
2017-09-23T15:11:27.922Z,39.00
2017-09-23T15:13:55.595Z,30.60
2017-09-23T15:16:23.198Z,28.50
2017-09-23T15:18:50.742Z,31.23
2017-09-23T15:21:18.262Z,27.27
2017-09-23T15:23:45.811Z,26.57
2017-09-23T15:26:13.327Z,25.00
2017-09-23T15:28:41.588Z,28.07
2017-09-23T15:31:09.844Z,28.17
2017-09-23T15:33:38.133Z,28.27
2017-09-23T15:36:05.679Z,35.67
2017-09-23T15:38:33.193Z,30.50
2017-09-23T15:41:01.457Z,30.97
2017-09-23T15:43:29.736Z,32.67
2017-09-23T15:45:57.239Z,31.07
2017-09-23T15:48:24.753Z,31.20
2017-09-23T15:50:52.273Z,28.43
2017-09-23T15:53:19.785Z,24.90
2017-09-23T15:55:48.082Z,24.83
2017-09-23T15:58:15.607Z,24.70
2017-09-23T16:00:43.870Z,24.80
2017-09-23T16:03:11.450Z,24.67
2017-09-23T16:05:38.942Z,25.80
2017-09-23T16:08:07.217Z,27.50
2017-09-23T16:10:35.823Z,30.60
2017-09-23T16:13:03.777Z,30.40
2017-09-23T16:15:31.321Z,31.43
2017-09-23T16:17:58.845Z,26.53
2017-09-23T16:20:26.349Z,29.43
2017-09-23T16:22:53.849Z,26.97
2017-09-23T16:25:21.357Z,31.30
2017-09-23T16:27:48.857Z,29.30
2017-09-23T16:30:16.367Z,34.70
2017-09-23T16:32:43.865Z,31.60
2017-09-23T16:35:11.401Z,28.10
2017-09-23T16:37:38.897Z,26.90
2017-09-23T16:40:06.434Z,28.40
2017-09-23T16:42:33.973Z,24.40
2017-09-23T16:45:01.474Z,36.10
2017-09-23T16:47:29.057Z,26.40
2017-09-23T16:49:56.549Z,26.13
2017-09-23T16:52:24.057Z,32.90
2017-09-23T16:54:51.553Z,30.27
2017-09-23T16:57:19.138Z,30.70
2017-09-23T16:59:46.641Z,32.50
2017-09-23T17:02:14.328Z,34.77
2017-09-23T17:04:41.825Z,36.30
2017-09-23T17:07:09.409Z,32.47
2017-09-23T17:09:36.953Z,33.90
2017-09-23T17:12:04.505Z,35.77
2017-09-23T17:14:32.008Z,34.30
2017-09-23T17:16:59.589Z,39.67
2017-09-23T17:19:27.080Z,42.27
2017-09-23T17:21:54.673Z,44.13
2017-09-23T17:24:22.230Z,47.90
2017-09-23T17:26:49.729Z,46.30
2017-09-23T17:29:17.245Z,53.30
2017-09-23T17:31:44.749Z,54.20
2017-09-23T17:34:12.293Z,53.53
2017-09-23T17:36:39.789Z,48.87
2017-09-23T17:39:07.382Z,49.90
2017-09-23T17:41:34.934Z,45.80
2017-09-23T17:44:02.473Z,60.13
2017-09-23T17:46:30.047Z,49.50
2017-09-23T17:48:57.541Z,62.50
2017-09-23T17:51:25.797Z,56.37
2017-09-23T17:53:54.074Z,60.53
2017-09-23T17:56:21.564Z,65.60
2017-09-23T17:58:49.089Z,66.53
2017-09-23T18:01:16.609Z,66.03
2017-09-23T18:03:44.106Z,61.33
2017-09-23T18:06:11.621Z,63.60
2017-09-23T18:08:39.108Z,59.57
2017-09-23T18:11:06.616Z,61.90
2017-09-23T18:13:34.105Z,59.00
2017-09-23T18:16:02.377Z,51.57
2017-09-23T18:18:29.873Z,59.80
2017-09-23T18:20:57.390Z,56.50
2017-09-23T18:23:24.922Z,56.70
2017-09-23T18:25:52.425Z,57.03
2017-09-23T18:28:20.007Z,47.67
2017-09-23T18:30:47.537Z,53.80
2017-09-23T18:33:15.101Z,55.30
2017-09-23T18:35:42.641Z,60.93
2017-09-23T18:38:10.149Z,59.07
2017-09-23T18:40:38.414Z,54.10
2017-09-23T18:43:06.693Z,62.87
2017-09-23T18:45:34.191Z,63.60
2017-09-23T18:48:01.701Z,55.47
2017-09-23T18:50:29.193Z,60.00
2017-09-23T18:52:56.772Z,60.20
2017-09-23T18:55:24.317Z,60.77
2017-09-23T18:57:51.825Z,62.87
2017-09-23T19:00:19.323Z,67.30
2017-09-23T19:02:46.846Z,61.80
2017-09-23T19:05:14.345Z,63.60
2017-09-23T19:07:41.854Z,65.80
2017-09-23T19:10:09.379Z,60.63
2017-09-23T19:12:36.885Z,56.67
2017-09-23T19:15:05.157Z,71.70
2017-09-23T19:17:32.734Z,61.67
2017-09-23T19:20:00.241Z,66.80
2017-09-23T19:22:28.497Z,58.60
2017-09-23T19:24:56.005Z,59.77
2017-09-23T19:27:23.497Z,62.47
2017-09-23T19:29:51.777Z,66.03
2017-09-23T19:32:19.321Z,63.30
2017-09-23T19:34:46.878Z,71.33
2017-09-23T19:37:14.517Z,74.27
2017-09-23T19:39:42.063Z,66.53
2017-09-23T19:42:09.570Z,67.13
2017-09-23T19:44:37.105Z,66.00
2017-09-23T19:47:04.606Z,67.77
2017-09-23T19:49:32.105Z,62.77
2017-09-23T19:51:59.622Z,53.20
2017-09-23T19:54:27.150Z,65.53
2017-09-23T19:56:54.697Z,58.70
2017-09-23T19:59:22.197Z,55.17
2017-09-23T20:01:49.714Z,61.73
2017-09-23T20:04:17.216Z,59.77
2017-09-23T20:06:44.868Z,72.80
2017-09-23T20:09:12.362Z,58.13
2017-09-23T20:11:40.638Z,59.33
2017-09-23T20:14:08.899Z,66.77
2017-09-23T20:16:36.479Z,60.30
2017-09-23T20:19:03.979Z,57.70
2017-09-23T20:21:31.493Z,63.13
2017-09-23T20:23:58.981Z,63.27
2017-09-23T20:26:27.274Z,70.60
2017-09-23T20:28:54.765Z,66.90
2017-09-23T20:31:23.761Z,75.47
2017-09-23T20:33:52.049Z,87.40
2017-09-23T20:36:19.588Z,88.47
2017-09-23T20:38:47.099Z,97.50
2017-09-23T20:41:14.598Z,78.03
2017-09-23T20:43:42.104Z,77.00
2017-09-23T20:46:09.597Z,80.53
2017-09-23T20:48:37.116Z,86.37
2017-09-23T20:51:05.373Z,99.87
2017-09-23T20:53:32.889Z,86.10
2017-09-23T20:56:00.377Z,80.37
2017-09-23T20:58:27.910Z,100.67
2017-09-23T21:00:56.193Z,106.87
2017-09-23T21:03:23.920Z,78.67
2017-09-23T21:05:51.432Z,63.67
2017-09-23T21:08:18.922Z,65.00
2017-09-23T21:10:46.431Z,63.20
2017-09-23T21:13:14.694Z,95.33
2017-09-23T21:15:42.976Z,66.60
2017-09-23T21:18:10.473Z,90.87
2017-09-23T21:20:37.996Z,107.53
2017-09-23T21:23:05.501Z,142.57
2017-09-23T21:25:33.060Z,126.07
2017-09-23T21:28:00.557Z,163.17
2017-09-23T21:30:28.077Z,127.30
2017-09-23T21:32:55.568Z,95.47
2017-09-23T21:35:23.946Z,105.57
2017-09-23T21:37:51.446Z,93.90
2017-09-23T21:40:19.733Z,85.83
2017-09-23T21:42:48.033Z,85.83
2017-09-23T21:45:15.533Z,83.83
2017-09-23T21:47:43.042Z,86.57
2017-09-23T21:50:10.530Z,90.70
2017-09-23T21:52:38.810Z,82.30
2017-09-23T21:55:06.313Z,75.63
2017-09-23T21:57:33.909Z,71.87
2017-09-23T22:00:01.402Z,81.03
2017-09-23T22:02:29.677Z,86.30
2017-09-23T22:04:57.970Z,71.37
2017-09-23T22:07:25.485Z,81.57
2017-09-23T22:09:53.769Z,79.77
2017-09-23T22:12:21.285Z,75.90
2017-09-23T22:14:49.543Z,76.03
2017-09-23T22:17:17.822Z,74.93
2017-09-23T22:19:46.104Z,75.03
2017-09-23T22:22:13.594Z,70.80
2017-09-23T22:24:41.097Z,70.87
2017-09-23T22:27:08.594Z,80.87
2017-09-23T22:29:36.166Z,81.07
2017-09-23T22:32:03.678Z,78.13
2017-09-23T22:34:31.264Z,71.97
2017-09-23T22:36:58.757Z,74.03
2017-09-23T22:39:26.277Z,91.93
2017-09-23T22:41:53.773Z,87.90
2017-09-23T22:44:22.036Z,81.77
2017-09-23T22:46:50.311Z,89.67
2017-09-23T22:49:17.805Z,96.80
2017-09-23T22:51:45.318Z,77.03
2017-09-23T22:54:12.814Z,63.77
2017-09-23T22:56:41.102Z,83.27
2017-09-23T22:59:08.593Z,73.23
2017-09-23T23:01:36.105Z,69.23
2017-09-23T23:04:03.638Z,77.77
2017-09-23T23:06:31.153Z,77.83
2017-09-23T23:08:58.646Z,83.33
2017-09-23T23:11:26.200Z,78.33
2017-09-23T23:13:53.693Z,90.13
2017-09-23T23:16:21.185Z,84.70
2017-09-23T23:18:48.773Z,89.77
2017-09-23T23:21:16.269Z,87.97
2017-09-23T23:23:43.788Z,102.13
2017-09-23T23:26:11.292Z,101.50
2017-09-23T23:28:39.569Z,74.10
2017-09-23T23:31:07.114Z,86.10
2017-09-23T23:33:34.637Z,88.37
2017-09-23T23:36:02.897Z,81.17
2017-09-23T23:38:31.173Z,79.67
2017-09-23T23:40:58.673Z,70.37
2017-09-23T23:43:26.181Z,71.63
2017-09-23T23:45:53.676Z,66.03
2017-09-23T23:48:21.946Z,90.47
2017-09-23T23:50:50.201Z,69.90
2017-09-23T23:53:18.481Z,65.37
2017-09-23T23:55:46.033Z,74.17
2017-09-23T23:58:13.530Z,69.60
